sensor_id;sensor_type;location;lat;lon;timestamp;P1;durP1;ratioP1;P2;durP2;ratioP2
55190;SDS011;41070;50.360;18.742;2023-04-09T08:58:43;59.10;;;29.00;;
55190;SDS011;41070;50.360;18.742;2023-04-09T09:01:20;65.20;;;31.70;;
55190;SDS011;41070;50.360;18.742;2023-04-09T09:06:21;53.70;;;25.80;;
55190;SDS011;41070;50.360;18.742;2023-04-09T09:09:01;56.50;;;27.60;;
55190;SDS011;41070;50.360;18.742;2023-04-09T09:11:36;54.70;;;27.90;;
55190;SDS011;41070;50.360;18.742;2023-04-09T09:14:12;54.50;;;28.10;;
55190;SDS011;41070;50.360;18.742;2023-04-09T09:16:43;57.80;;;28.40;;
55190;SDS011;41070;50.360;18.742;2023-04-09T09:19:28;57.20;;;26.50;;
55190;SDS011;41070;50.360;18.742;2023-04-09T09:22:01;51.40;;;25.30;;
55190;SDS011;41070;50.360;18.742;2023-04-09T09:24:50;58.30;;;27.70;;
55190;SDS011;41070;50.360;18.742;2023-04-09T09:27:29;51.50;;;26.10;;
55190;SDS011;41070;50.360;18.742;2023-04-09T09:29:57;55.80;;;25.90;;
55190;SDS011;41070;50.360;18.742;2023-04-09T09:32:23;50.00;;;25.80;;
55190;SDS011;41070;50.360;18.742;2023-04-09T09:35:03;55.30;;;26.60;;
55190;SDS011;41070;50.360;18.742;2023-04-09T09:37:31;52.90;;;26.30;;
55190;SDS011;41070;50.360;18.742;2023-04-09T09:39:58;54.00;;;28.00;;
55190;SDS011;41070;50.360;18.742;2023-04-09T09:42:25;57.20;;;28.00;;
55190;SDS011;41070;50.360;18.742;2023-04-09T09:44:52;51.70;;;26.20;;
55190;SDS011;41070;50.360;18.742;2023-04-09T09:47:19;48.30;;;25.70;;
55190;SDS011;41070;50.360;18.742;2023-04-09T09:49:47;53.30;;;27.00;;
55190;SDS011;41070;50.360;18.742;2023-04-09T09:52:15;50.20;;;26.30;;
55190;SDS011;41070;50.360;18.742;2023-04-09T09:54:51;51.30;;;26.60;;
55190;SDS011;41070;50.360;18.742;2023-04-09T09:57:18;49.90;;;26.20;;
55190;SDS011;41070;50.360;18.742;2023-04-09T09:59:49;47.90;;;25.70;;
55190;SDS011;41070;50.360;18.742;2023-04-09T10:02:19;48.30;;;26.40;;
55190;SDS011;41070;50.360;18.742;2023-04-09T10:04:48;50.70;;;26.40;;
55190;SDS011;41070;50.360;18.742;2023-04-09T10:07:16;48.40;;;25.60;;
55190;SDS011;41070;50.360;18.742;2023-04-09T10:09:44;50.80;;;27.30;;
55190;SDS011;41070;50.360;18.742;2023-04-09T10:12:17;50.30;;;25.60;;
55190;SDS011;41070;50.360;18.742;2023-04-09T10:14:48;52.20;;;27.50;;
55190;SDS011;41070;50.360;18.742;2023-04-09T10:17:17;51.30;;;27.00;;
55190;SDS011;41070;50.360;18.742;2023-04-09T10:22:35;51.40;;;27.10;;
55190;SDS011;41070;50.360;18.742;2023-04-09T10:25:09;51.10;;;26.80;;
55190;SDS011;41070;50.360;18.742;2023-04-09T10:27:36;50.00;;;26.30;;
55190;SDS011;41070;50.360;18.742;2023-04-09T10:30:02;51.50;;;27.20;;
55190;SDS011;41070;50.360;18.742;2023-04-09T10:32:35;45.70;;;24.90;;
55190;SDS011;41070;50.360;18.742;2023-04-09T10:35:04;48.40;;;25.80;;
55190;SDS011;41070;50.360;18.742;2023-04-09T10:37:31;46.20;;;24.80;;
55190;SDS011;41070;50.360;18.742;2023-04-09T10:40:00;48.80;;;24.70;;
55190;SDS011;41070;50.360;18.742;2023-04-09T10:42:35;50.90;;;26.10;;
55190;SDS011;41070;50.360;18.742;2023-04-09T10:45:06;45.80;;;24.90;;
55190;SDS011;41070;50.360;18.742;2023-04-09T10:47:37;45.00;;;23.90;;
55190;SDS011;41070;50.360;18.742;2023-04-09T10:50:15;46.10;;;25.60;;
55190;SDS011;41070;50.360;18.742;2023-04-09T10:58:15;41.30;;;22.90;;
55190;SDS011;41070;50.360;18.742;2023-04-09T11:00:49;46.20;;;26.70;;
55190;SDS011;41070;50.360;18.742;2023-04-09T11:03:28;40.90;;;22.70;;
55190;SDS011;41070;50.360;18.742;2023-04-09T11:06:02;49.50;;;26.30;;
55190;SDS011;41070;50.360;18.742;2023-04-09T11:08:35;44.10;;;23.60;;
55190;SDS011;41070;50.360;18.742;2023-04-09T11:11:05;45.70;;;24.60;;
55190;SDS011;41070;50.360;18.742;2023-04-09T11:13:34;40.30;;;22.60;;
55190;SDS011;41070;50.360;18.742;2023-04-09T11:16:02;37.40;;;21.20;;
55190;SDS011;41070;50.360;18.742;2023-04-09T11:18:31;44.70;;;24.60;;
55190;SDS011;41070;50.360;18.742;2023-04-09T11:20:59;39.00;;;20.80;;
55190;SDS011;41070;50.360;18.742;2023-04-09T11:23:28;32.90;;;18.90;;
55190;SDS011;41070;50.360;18.742;2023-04-09T11:25:54;32.60;;;19.40;;
55190;SDS011;41070;50.360;18.742;2023-04-09T11:28:21;37.20;;;20.90;;
55190;SDS011;41070;50.360;18.742;2023-04-09T11:30:52;38.20;;;21.20;;
55190;SDS011;41070;50.360;18.742;2023-04-09T11:33:18;39.20;;;20.80;;
55190;SDS011;41070;50.360;18.742;2023-04-09T11:35:45;34.90;;;21.00;;
55190;SDS011;41070;50.360;18.742;2023-04-09T11:38:12;37.00;;;20.30;;
55190;SDS011;41070;50.360;18.742;2023-04-09T11:40:41;34.20;;;19.30;;
55190;SDS011;41070;50.360;18.742;2023-04-09T11:43:12;36.60;;;20.40;;
55190;SDS011;41070;50.360;18.742;2023-04-09T11:45:40;35.30;;;19.90;;
55190;SDS011;41070;50.360;18.742;2023-04-09T11:48:07;34.90;;;19.00;;
55190;SDS011;41070;50.360;18.742;2023-04-09T11:50:34;35.00;;;19.20;;
55190;SDS011;41070;50.360;18.742;2023-04-09T11:53:14;33.10;;;19.00;;
55190;SDS011;41070;50.360;18.742;2023-04-09T11:55:50;34.30;;;19.60;;
55190;SDS011;41070;50.360;18.742;2023-04-09T11:58:21;31.50;;;18.10;;
55190;SDS011;41070;50.360;18.742;2023-04-09T12:00:51;33.10;;;18.70;;
55190;SDS011;41070;50.360;18.742;2023-04-09T12:03:24;31.20;;;17.60;;
55190;SDS011;41070;50.360;18.742;2023-04-09T12:05:53;33.20;;;18.30;;
55190;SDS011;41070;50.360;18.742;2023-04-09T12:08:22;34.70;;;19.10;;
55190;SDS011;41070;50.360;18.742;2023-04-09T12:10:50;32.70;;;18.80;;
55190;SDS011;41070;50.360;18.742;2023-04-09T12:13:18;35.20;;;19.70;;
55190;SDS011;41070;50.360;18.742;2023-04-09T12:15:44;32.60;;;19.10;;
55190;SDS011;41070;50.360;18.742;2023-04-09T12:18:14;32.60;;;17.80;;
55190;SDS011;41070;50.360;18.742;2023-04-09T12:20:45;36.50;;;20.30;;
55190;SDS011;41070;50.360;18.742;2023-04-09T12:23:14;38.40;;;21.20;;
55190;SDS011;41070;50.360;18.742;2023-04-09T12:25:42;37.20;;;21.20;;
55190;SDS011;41070;50.360;18.742;2023-04-09T12:28:13;37.00;;;21.10;;
55190;SDS011;41070;50.360;18.742;2023-04-09T12:30:42;39.20;;;20.70;;
55190;SDS011;41070;50.360;18.742;2023-04-09T12:33:10;40.90;;;22.50;;
55190;SDS011;41070;50.360;18.742;2023-04-09T12:35:36;35.60;;;20.80;;
55190;SDS011;41070;50.360;18.742;2023-04-09T12:38:02;35.30;;;20.30;;
55190;SDS011;41070;50.360;18.742;2023-04-09T12:40:29;34.90;;;19.10;;
55190;SDS011;41070;50.360;18.742;2023-04-09T12:42:55;40.30;;;19.90;;
55190;SDS011;41070;50.360;18.742;2023-04-09T12:47:48;26.40;;;16.10;;
55190;SDS011;41070;50.360;18.742;2023-04-09T12:50:14;33.70;;;20.40;;
55190;SDS011;41070;50.360;18.742;2023-04-09T12:52:41;30.60;;;18.50;;
55190;SDS011;41070;50.360;18.742;2023-04-09T12:55:08;34.70;;;20.70;;
55190;SDS011;41070;50.360;18.742;2023-04-09T12:57:35;33.80;;;18.90;;
55190;SDS011;41070;50.360;18.742;2023-04-09T13:00:03;29.20;;;18.40;;
55190;SDS011;41070;50.360;18.742;2023-04-09T13:02:29;28.70;;;17.50;;
55190;SDS011;41070;50.360;18.742;2023-04-09T13:07:25;27.00;;;16.70;;
55190;SDS011;41070;50.360;18.742;2023-04-09T13:09:59;18.30;;;12.60;;
55190;SDS011;41070;50.360;18.742;2023-04-09T13:15:19;22.40;;;13.40;;
55190;SDS011;41070;50.360;18.742;2023-04-09T13:17:45;23.40;;;14.00;;
55190;SDS011;41070;50.360;18.742;2023-04-09T13:20:14;22.60;;;14.40;;
55190;SDS011;41070;50.360;18.742;2023-04-09T13:22:44;20.70;;;13.20;;
55190;SDS011;41070;50.360;18.742;2023-04-09T13:25:13;22.10;;;13.50;;
55190;SDS011;41070;50.360;18.742;2023-04-09T13:27:40;19.40;;;12.70;;
55190;SDS011;41070;50.360;18.742;2023-04-09T13:32:42;16.70;;;11.30;;
55190;SDS011;41070;50.360;18.742;2023-04-09T13:35:11;20.00;;;11.10;;
55190;SDS011;41070;50.360;18.742;2023-04-09T13:37:40;16.80;;;11.00;;
55190;SDS011;41070;50.360;18.742;2023-04-09T13:40:13;17.40;;;11.40;;
55190;SDS011;41070;50.360;18.742;2023-04-09T13:45:05;17.90;;;11.40;;
55190;SDS011;41070;50.360;18.742;2023-04-09T13:47:39;18.30;;;11.30;;
55190;SDS011;41070;50.360;18.742;2023-04-09T13:50:07;16.80;;;10.60;;
55190;SDS011;41070;50.360;18.742;2023-04-09T13:52:35;16.00;;;10.00;;
55190;SDS011;41070;50.360;18.742;2023-04-09T13:55:02;16.20;;;10.70;;
55190;SDS011;41070;50.360;18.742;2023-04-09T13:57:30;16.90;;;10.80;;
55190;SDS011;41070;50.360;18.742;2023-04-09T14:02:26;15.10;;;10.20;;
55190;SDS011;41070;50.360;18.742;2023-04-09T14:05:04;17.40;;;10.80;;
55190;SDS011;41070;50.360;18.742;2023-04-09T14:07:35;20.00;;;13.10;;
55190;SDS011;41070;50.360;18.742;2023-04-09T14:10:01;19.00;;;11.80;;
55190;SDS011;41070;50.360;18.742;2023-04-09T14:12:28;22.10;;;13.40;;
55190;SDS011;41070;50.360;18.742;2023-04-09T14:14:58;16.70;;;10.60;;
55190;SDS011;41070;50.360;18.742;2023-04-09T14:17:25;15.70;;;10.50;;
55190;SDS011;41070;50.360;18.742;2023-04-09T14:19:51;17.40;;;11.30;;
55190;SDS011;41070;50.360;18.742;2023-04-09T14:24:47;16.40;;;10.80;;
55190;SDS011;41070;50.360;18.742;2023-04-09T14:29:43;19.00;;;12.00;;
55190;SDS011;41070;50.360;18.742;2023-04-09T14:32:23;24.50;;;14.20;;
55190;SDS011;41070;50.360;18.742;2023-04-09T14:34:50;17.30;;;12.30;;
55190;SDS011;41070;50.360;18.742;2023-04-09T14:37:20;19.50;;;12.60;;
55190;SDS011;41070;50.360;18.742;2023-04-09T14:39:49;21.20;;;14.00;;
55190;SDS011;41070;50.360;18.742;2023-04-09T14:42:16;20.50;;;13.50;;
55190;SDS011;41070;50.360;18.742;2023-04-09T14:44:43;17.00;;;11.80;;
55190;SDS011;41070;50.360;18.742;2023-04-09T14:47:13;20.60;;;12.90;;
55190;SDS011;41070;50.360;18.742;2023-04-09T14:49:42;21.60;;;13.80;;
55190;SDS011;41070;50.360;18.742;2023-04-09T14:54:35;17.20;;;12.00;;
55190;SDS011;41070;50.360;18.742;2023-04-09T14:57:02;19.10;;;11.70;;
55190;SDS011;41070;50.360;18.742;2023-04-09T14:59:28;18.80;;;12.00;;
55190;SDS011;41070;50.360;18.742;2023-04-09T15:04:37;21.30;;;13.50;;
55190;SDS011;41070;50.360;18.742;2023-04-09T15:09:31;21.90;;;13.10;;
55190;SDS011;41070;50.360;18.742;2023-04-09T15:11:58;17.50;;;11.60;;
55190;SDS011;41070;50.360;18.742;2023-04-09T15:16:53;14.30;;;9.10;;
55190;SDS011;41070;50.360;18.742;2023-04-09T15:19:20;11.60;;;8.30;;
55190;SDS011;41070;50.360;18.742;2023-04-09T15:21:46;11.80;;;7.30;;
55190;SDS011;41070;50.360;18.742;2023-04-09T15:24:16;15.80;;;9.70;;
55190;SDS011;41070;50.360;18.742;2023-04-09T15:26:47;15.50;;;10.40;;
55190;SDS011;41070;50.360;18.742;2023-04-09T15:29:32;17.40;;;10.90;;
55190;SDS011;41070;50.360;18.742;2023-04-09T15:31:58;11.20;;;7.90;;
55190;SDS011;41070;50.360;18.742;2023-04-09T15:34:25;12.70;;;8.40;;
55190;SDS011;41070;50.360;18.742;2023-04-09T15:39:17;12.10;;;8.20;;
55190;SDS011;41070;50.360;18.742;2023-04-09T15:44:10;13.90;;;8.20;;
55190;SDS011;41070;50.360;18.742;2023-04-09T15:49:28;13.40;;;8.80;;
55190;SDS011;41070;50.360;18.742;2023-04-09T15:54:39;14.00;;;9.50;;
55190;SDS011;41070;50.360;18.742;2023-04-09T15:57:08;12.90;;;9.10;;
55190;SDS011;41070;50.360;18.742;2023-04-09T15:59:52;14.30;;;9.40;;
55190;SDS011;41070;50.360;18.742;2023-04-09T16:02:28;28.80;;;19.70;;
55190;SDS011;41070;50.360;18.742;2023-04-09T16:05:12;48.00;;;25.00;;
55190;SDS011;41070;50.360;18.742;2023-04-09T16:08:05;76.40;;;34.10;;
55190;SDS011;41070;50.360;18.742;2023-04-09T16:10:32;27.80;;;16.50;;
55190;SDS011;41070;50.360;18.742;2023-04-09T16:18:51;74.50;;;34.70;;
55190;SDS011;41070;50.360;18.742;2023-04-09T16:22:25;111.90;;;54.60;;
55190;SDS011;41070;50.360;18.742;2023-04-09T16:24:53;54.40;;;32.40;;
55190;SDS011;41070;50.360;18.742;2023-04-09T16:31:16;81.60;;;39.60;;
55190;SDS011;41070;50.360;18.742;2023-04-09T16:33:42;143.30;;;66.60;;
55190;SDS011;41070;50.360;18.742;2023-04-09T16:37:09;78.50;;;44.20;;
55190;SDS011;41070;50.360;18.742;2023-04-09T16:39:45;86.60;;;48.40;;
55190;SDS011;41070;50.360;18.742;2023-04-09T16:42:29;39.30;;;24.10;;
55190;SDS011;41070;50.360;18.742;2023-04-09T16:45:04;55.10;;;31.10;;
55190;SDS011;41070;50.360;18.742;2023-04-09T16:47:35;58.10;;;33.90;;
55190;SDS011;41070;50.360;18.742;2023-04-09T16:50:12;124.60;;;54.60;;
55190;SDS011;41070;50.360;18.742;2023-04-09T16:53:31;87.20;;;41.20;;
55190;SDS011;41070;50.360;18.742;2023-04-09T16:56:02;53.40;;;29.00;;
55190;SDS011;41070;50.360;18.742;2023-04-09T16:59:28;36.20;;;20.70;;
55190;SDS011;41070;50.360;18.742;2023-04-09T17:02:03;45.50;;;25.60;;
55190;SDS011;41070;50.360;18.742;2023-04-09T17:05:09;213.60;;;95.50;;
55190;SDS011;41070;50.360;18.742;2023-04-09T17:11:12;47.80;;;27.10;;
55190;SDS011;41070;50.360;18.742;2023-04-09T17:17:52;30.00;;;16.80;;
55190;SDS011;41070;50.360;18.742;2023-04-09T17:24:45;35.60;;;17.10;;
55190;SDS011;41070;50.360;18.742;2023-04-09T17:27:11;141.00;;;35.90;;
55190;SDS011;41070;50.360;18.742;2023-04-09T17:32:34;110.80;;;30.60;;
55190;SDS011;41070;50.360;18.742;2023-04-09T17:35:10;112.70;;;33.00;;
55190;SDS011;41070;50.360;18.742;2023-04-09T17:38:36;71.60;;;24.70;;
55190;SDS011;41070;50.360;18.742;2023-04-09T18:01:18;110.60;;;41.70;;
55190;SDS011;41070;50.360;18.742;2023-04-09T18:04:10;53.30;;;26.20;;
55190;SDS011;41070;50.360;18.742;2023-04-09T18:07:18;74.70;;;33.70;;
55190;SDS011;41070;50.360;18.742;2023-04-09T18:10:13;126.60;;;51.00;;
55190;SDS011;41070;50.360;18.742;2023-04-09T18:12:39;76.30;;;33.70;;
55190;SDS011;41070;50.360;18.742;2023-04-09T18:18:39;46.80;;;22.20;;
55190;SDS011;41070;50.360;18.742;2023-04-09T18:21:46;28.70;;;15.70;;
55190;SDS011;41070;50.360;18.742;2023-04-09T18:24:29;32.60;;;17.80;;
55190;SDS011;41070;50.360;18.742;2023-04-09T18:27:50;24.30;;;14.00;;
55190;SDS011;41070;50.360;18.742;2023-04-09T18:30:20;26.40;;;14.70;;
55190;SDS011;41070;50.360;18.742;2023-04-09T18:33:15;29.30;;;16.30;;
55190;SDS011;41070;50.360;18.742;2023-04-09T18:35:42;27.30;;;14.60;;
55190;SDS011;41070;50.360;18.742;2023-04-09T18:40:39;28.70;;;14.80;;
55190;SDS011;41070;50.360;18.742;2023-04-09T18:43:07;24.80;;;14.50;;
55190;SDS011;41070;50.360;18.742;2023-04-09T18:45:34;29.80;;;16.30;;
55190;SDS011;41070;50.360;18.742;2023-04-09T18:48:04;74.10;;;34.10;;
55190;SDS011;41070;50.360;18.742;2023-04-09T18:50:31;78.80;;;37.10;;
55190;SDS011;41070;50.360;18.742;2023-04-09T18:52:58;40.50;;;21.70;;
55190;SDS011;41070;50.360;18.742;2023-04-09T18:55:24;103.20;;;29.80;;
55190;SDS011;41070;50.360;18.742;2023-04-09T18:57:51;75.30;;;27.40;;
55190;SDS011;41070;50.360;18.742;2023-04-09T19:00:17;120.40;;;37.10;;
55190;SDS011;41070;50.360;18.742;2023-04-09T19:02:44;40.80;;;17.80;;
55190;SDS011;41070;50.360;18.742;2023-04-09T19:05:10;26.40;;;15.60;;
55190;SDS011;41070;50.360;18.742;2023-04-09T19:07:37;25.50;;;15.90;;
55190;SDS011;41070;50.360;18.742;2023-04-09T19:10:04;26.40;;;14.50;;
55190;SDS011;41070;50.360;18.742;2023-04-09T19:12:32;29.20;;;16.80;;
55190;SDS011;41070;50.360;18.742;2023-04-09T19:14:59;32.70;;;18.20;;
55190;SDS011;41070;50.360;18.742;2023-04-09T19:17:47;29.40;;;17.10;;
55190;SDS011;41070;50.360;18.742;2023-04-09T19:20:22;25.40;;;14.90;;
55190;SDS011;41070;50.360;18.742;2023-04-09T19:22:50;30.40;;;16.30;;
55190;SDS011;41070;50.360;18.742;2023-04-09T19:25:30;28.70;;;16.20;;
55190;SDS011;41070;50.360;18.742;2023-04-09T19:27:58;29.70;;;16.80;;
55190;SDS011;41070;50.360;18.742;2023-04-09T19:30:24;30.10;;;18.50;;
55190;SDS011;41070;50.360;18.742;2023-04-09T19:32:51;31.40;;;18.80;;
55190;SDS011;41070;50.360;18.742;2023-04-09T19:37:43;55.90;;;27.60;;
55190;SDS011;41070;50.360;18.742;2023-04-09T19:40:10;53.00;;;26.40;;
55190;SDS011;41070;50.360;18.742;2023-04-09T19:42:37;38.70;;;21.30;;
55190;SDS011;41070;50.360;18.742;2023-04-09T19:45:03;34.60;;;19.80;;
55190;SDS011;41070;50.360;18.742;2023-04-09T19:47:30;34.50;;;18.80;;
55190;SDS011;41070;50.360;18.742;2023-04-09T19:49:58;31.20;;;17.80;;
55190;SDS011;41070;50.360;18.742;2023-04-09T19:52:26;33.60;;;19.00;;
55190;SDS011;41070;50.360;18.742;2023-04-09T19:54:53;34.50;;;21.20;;
55190;SDS011;41070;50.360;18.742;2023-04-09T19:57:20;34.60;;;20.10;;
55190;SDS011;41070;50.360;18.742;2023-04-09T20:02:12;37.10;;;20.70;;
55190;SDS011;41070;50.360;18.742;2023-04-09T20:04:39;36.10;;;21.40;;
55190;SDS011;41070;50.360;18.742;2023-04-09T20:07:06;35.90;;;20.80;;
55190;SDS011;41070;50.360;18.742;2023-04-09T20:12:00;36.00;;;20.00;;
55190;SDS011;41070;50.360;18.742;2023-04-09T20:14:30;32.40;;;18.90;;
55190;SDS011;41070;50.360;18.742;2023-04-09T20:16:57;36.50;;;20.10;;
55190;SDS011;41070;50.360;18.742;2023-04-09T20:19:23;38.50;;;22.80;;
55190;SDS011;41070;50.360;18.742;2023-04-09T20:22:03;45.60;;;23.90;;
55190;SDS011;41070;50.360;18.742;2023-04-09T20:34:22;46.50;;;24.10;;
55190;SDS011;41070;50.360;18.742;2023-04-09T20:40:47;38.60;;;21.10;;
55190;SDS011;41070;50.360;18.742;2023-04-09T20:43:16;49.60;;;25.90;;
55190;SDS011;41070;50.360;18.742;2023-04-09T20:45:42;56.00;;;27.10;;
55190;SDS011;41070;50.360;18.742;2023-04-09T20:48:08;41.90;;;23.20;;
55190;SDS011;41070;50.360;18.742;2023-04-09T20:50:35;41.00;;;22.60;;
55190;SDS011;41070;50.360;18.742;2023-04-09T20:53:01;42.20;;;22.00;;
55190;SDS011;41070;50.360;18.742;2023-04-09T20:55:27;61.80;;;30.60;;
55190;SDS011;41070;50.360;18.742;2023-04-09T20:57:54;66.40;;;33.80;;
55190;SDS011;41070;50.360;18.742;2023-04-09T21:00:21;69.10;;;38.00;;
55190;SDS011;41070;50.360;18.742;2023-04-09T21:02:48;64.80;;;36.20;;
55190;SDS011;41070;50.360;18.742;2023-04-09T21:05:14;66.80;;;33.50;;
55190;SDS011;41070;50.360;18.742;2023-04-09T21:07:41;97.10;;;43.40;;
55190;SDS011;41070;50.360;18.742;2023-04-09T21:10:07;100.30;;;37.00;;
55190;SDS011;41070;50.360;18.742;2023-04-09T21:12:33;85.20;;;31.50;;
55190;SDS011;41070;50.360;18.742;2023-04-09T21:15:00;106.50;;;37.00;;
55190;SDS011;41070;50.360;18.742;2023-04-09T21:17:26;97.60;;;37.20;;
55190;SDS011;41070;50.360;18.742;2023-04-09T21:22:21;62.90;;;28.10;;
55190;SDS011;41070;50.360;18.742;2023-04-09T21:24:53;86.20;;;37.30;;
55190;SDS011;41070;50.360;18.742;2023-04-09T21:27:21;76.90;;;36.80;;
55190;SDS011;41070;50.360;18.742;2023-04-09T21:29:48;76.30;;;35.00;;
55190;SDS011;41070;50.360;18.742;2023-04-09T21:32:14;62.10;;;29.30;;
55190;SDS011;41070;50.360;18.742;2023-04-09T21:34:41;74.60;;;33.40;;
55190;SDS011;41070;50.360;18.742;2023-04-09T21:39:34;59.40;;;27.40;;
55190;SDS011;41070;50.360;18.742;2023-04-09T21:42:00;89.70;;;37.60;;
55190;SDS011;41070;50.360;18.742;2023-04-09T21:44:27;87.20;;;34.10;;
55190;SDS011;41070;50.360;18.742;2023-04-09T21:46:53;112.00;;;41.10;;
55190;SDS011;41070;50.360;18.742;2023-04-09T21:49:19;123.50;;;45.00;;
55190;SDS011;41070;50.360;18.742;2023-04-09T21:54:12;70.00;;;28.90;;
55190;SDS011;41070;50.360;18.742;2023-04-09T21:56:38;53.00;;;25.20;;
55190;SDS011;41070;50.360;18.742;2023-04-09T21:59:04;50.60;;;26.10;;
55190;SDS011;41070;50.360;18.742;2023-04-09T22:01:31;50.80;;;25.30;;
55190;SDS011;41070;50.360;18.742;2023-04-09T22:03:59;68.40;;;30.60;;
55190;SDS011;41070;50.360;18.742;2023-04-09T22:06:26;122.90;;;41.00;;
55190;SDS011;41070;50.360;18.742;2023-04-09T22:08:53;62.00;;;26.00;;
55190;SDS011;41070;50.360;18.742;2023-04-09T22:11:22;50.30;;;22.90;;
55190;SDS011;41070;50.360;18.742;2023-04-09T22:13:51;48.20;;;22.30;;
55190;SDS011;41070;50.360;18.742;2023-04-09T22:16:17;42.60;;;20.00;;
55190;SDS011;41070;50.360;18.742;2023-04-09T22:18:44;65.60;;;28.90;;
55190;SDS011;41070;50.360;18.742;2023-04-09T22:21:13;78.60;;;32.00;;
55190;SDS011;41070;50.360;18.742;2023-04-09T22:23:41;98.20;;;37.70;;
55190;SDS011;41070;50.360;18.742;2023-04-09T22:26:07;75.00;;;30.40;;
55190;SDS011;41070;50.360;18.742;2023-04-09T22:28:34;53.10;;;24.40;;
55190;SDS011;41070;50.360;18.742;2023-04-09T22:31:00;48.90;;;22.70;;
55190;SDS011;41070;50.360;18.742;2023-04-09T22:33:27;44.70;;;21.40;;
55190;SDS011;41070;50.360;18.742;2023-04-09T22:35:54;51.20;;;24.60;;
55190;SDS011;41070;50.360;18.742;2023-04-09T22:40:47;47.50;;;23.50;;
55190;SDS011;41070;50.360;18.742;2023-04-09T22:43:13;64.60;;;30.60;;
55190;SDS011;41070;50.360;18.742;2023-04-09T22:48:06;90.60;;;36.80;;
55190;SDS011;41070;50.360;18.742;2023-04-09T22:50:33;59.80;;;26.70;;
55190;SDS011;41070;50.360;18.742;2023-04-09T22:52:59;74.90;;;32.20;;
55190;SDS011;41070;50.360;18.742;2023-04-09T22:55:26;57.00;;;26.20;;
55190;SDS011;41070;50.360;18.742;2023-04-09T22:57:52;59.20;;;29.10;;
55190;SDS011;41070;50.360;18.742;2023-04-09T23:00:19;46.20;;;22.20;;
55190;SDS011;41070;50.360;18.742;2023-04-09T23:02:45;49.90;;;24.60;;
55190;SDS011;41070;50.360;18.742;2023-04-09T23:05:12;46.30;;;23.00;;
55190;SDS011;41070;50.360;18.742;2023-04-09T23:10:05;47.60;;;25.90;;
55190;SDS011;41070;50.360;18.742;2023-04-09T23:12:31;89.80;;;35.20;;
55190;SDS011;41070;50.360;18.742;2023-04-09T23:14:58;66.60;;;29.90;;
55190;SDS011;41070;50.360;18.742;2023-04-09T23:22:18;56.30;;;26.00;;
55190;SDS011;41070;50.360;18.742;2023-04-09T23:24:44;56.70;;;27.30;;
55190;SDS011;41070;50.360;18.742;2023-04-09T23:27:10;44.50;;;21.20;;
55190;SDS011;41070;50.360;18.742;2023-04-09T23:29:36;57.30;;;26.20;;
55190;SDS011;41070;50.360;18.742;2023-04-09T23:32:02;42.50;;;22.00;;
55190;SDS011;41070;50.360;18.742;2023-04-09T23:36:55;46.10;;;23.70;;
55190;SDS011;41070;50.360;18.742;2023-04-09T23:39:21;46.10;;;22.20;;
55190;SDS011;41070;50.360;18.742;2023-04-09T23:41:48;47.00;;;23.20;;
55190;SDS011;41070;50.360;18.742;2023-04-09T23:44:14;49.30;;;25.60;;
55190;SDS011;41070;50.360;18.742;2023-04-09T23:49:07;65.00;;;33.70;;
55190;SDS011;41070;50.360;18.742;2023-04-09T23:53:59;57.20;;;28.40;;
55190;SDS011;41070;50.360;18.742;2023-04-09T23:56:29;53.30;;;26.20;;
55190;SDS011;41070;50.360;18.742;2023-04-09T23:58:55;61.10;;;29.10;;
